createdAt,value
2019-05-29T00:00:03.893Z,1015.57
2019-05-29T00:10:04.617Z,1015.66
2019-05-29T00:20:04.290Z,1015.70
2019-05-29T00:30:04.471Z,1015.69
2019-05-29T00:40:03.530Z,1015.69
2019-05-29T00:50:04.060Z,1015.79
2019-05-29T01:00:04.179Z,1015.80
2019-05-29T01:10:03.305Z,1015.86
2019-05-29T01:20:03.468Z,1015.92
2019-05-29T01:30:04.313Z,1016.00
2019-05-29T01:40:27.565Z,1016.03
2019-05-29T01:50:03.905Z,1016.12
2019-05-29T02:00:06.509Z,1016.19
2019-05-29T02:10:03.234Z,1016.30
2019-05-29T02:20:04.129Z,1016.35
2019-05-29T02:30:03.723Z,1016.44
2019-05-29T02:40:03.754Z,1016.53
2019-05-29T02:50:03.677Z,1016.66
2019-05-29T03:00:04.346Z,1016.77
2019-05-29T03:10:03.259Z,1016.92
2019-05-29T03:20:03.289Z,1016.99
2019-05-29T03:30:03.873Z,1017.10
2019-05-29T03:40:03.797Z,1017.16
2019-05-29T03:50:03.858Z,1017.32
2019-05-29T04:00:04.031Z,1017.47
2019-05-29T04:10:02.882Z,1017.59
2019-05-29T04:20:03.076Z,1017.71
2019-05-29T04:30:04.148Z,1017.83
2019-05-29T04:40:03.160Z,1017.91
2019-05-29T04:50:03.454Z,1018.03
2019-05-29T05:00:04.485Z,1018.16
2019-05-29T05:10:03.747Z,1018.28
2019-05-29T05:20:02.863Z,1018.40
2019-05-29T05:30:04.612Z,1018.54
2019-05-29T05:40:07.811Z,1018.63
2019-05-29T05:50:03.069Z,1018.70
2019-05-29T06:00:04.528Z,1018.83
2019-05-29T06:10:03.582Z,1018.94
2019-05-29T06:20:04.259Z,1019.02
2019-05-29T06:30:04.493Z,1019.06
2019-05-29T06:40:03.082Z,1019.15
2019-05-29T06:50:03.079Z,1019.21
2019-05-29T07:00:04.655Z,1019.31
2019-05-29T07:10:03.578Z,1019.41
2019-05-29T07:20:04.873Z,1019.52
2019-05-29T07:30:03.562Z,1019.63
2019-05-29T07:40:03.764Z,1019.77
2019-05-29T07:50:04.075Z,1019.80
2019-05-29T08:00:03.992Z,1019.94
2019-05-29T08:10:03.849Z,1020.06
2019-05-29T08:20:08.808Z,1020.07
2019-05-29T08:30:04.587Z,1020.16
2019-05-29T08:40:03.373Z,1020.19
2019-05-29T08:50:19.613Z,1020.19
2019-05-29T09:00:03.865Z,1020.30
2019-05-29T09:10:03.430Z,1020.40
2019-05-29T09:20:03.481Z,1020.25
2019-05-29T09:30:04.389Z,1020.45
2019-05-29T09:40:03.290Z,1020.82
2019-05-29T09:50:02.976Z,1021.01
2019-05-29T10:00:05.377Z,1020.95
2019-05-29T10:10:05.704Z,1020.78
2019-05-29T10:20:05.431Z,1020.86
2019-05-29T10:30:04.172Z,1020.86
2019-05-29T10:40:02.974Z,1020.94
2019-05-29T10:50:03.938Z,1020.81
2019-05-29T11:00:05.863Z,1020.88
2019-05-29T11:10:03.782Z,1020.86
2019-05-29T11:20:03.273Z,1020.89
2019-05-29T11:30:04.173Z,1020.92
2019-05-29T11:40:04.197Z,1020.94
2019-05-29T11:50:20.489Z,1020.98
2019-05-29T12:00:21.587Z,1021.02
2019-05-29T12:10:06.894Z,1021.02
2019-05-29T12:20:26.695Z,1021.41
2019-05-29T12:30:04.606Z,1021.62
2019-05-29T12:40:04.512Z,1021.68
2019-05-29T12:50:05.023Z,1021.75
2019-05-29T13:00:06.659Z,1021.77
2019-05-29T13:10:05.430Z,1021.90
2019-05-29T13:20:22.652Z,1021.94
2019-05-29T13:30:08.881Z,1021.97
2019-05-29T13:40:09.071Z,1022.05
2019-05-29T13:50:12.809Z,1022.08
2019-05-29T14:00:34.526Z,1022.09
2019-05-29T14:10:09.397Z,1022.19
2019-05-29T14:20:04.386Z,1022.24
2019-05-29T14:30:10.178Z,1022.26
2019-05-29T14:40:05.552Z,1022.41
2019-05-29T14:50:06.269Z,1022.43
2019-05-29T15:00:25.390Z,1022.49
2019-05-29T15:10:26.491Z,1022.54
2019-05-29T15:20:03.265Z,1022.65
2019-05-29T15:30:03.708Z,1022.72
2019-05-29T15:40:03.569Z,1022.79
2019-05-29T15:50:03.781Z,1022.93
2019-05-29T16:00:04.508Z,1022.96
2019-05-29T16:10:03.500Z,1023.12
2019-05-29T16:20:04.035Z,1023.31
2019-05-29T16:30:04.096Z,1023.43
2019-05-29T16:40:02.932Z,1023.47
2019-05-29T16:50:03.762Z,1023.61
2019-05-29T17:00:04.344Z,1023.73
2019-05-29T17:10:02.969Z,1023.82
2019-05-29T17:20:04.154Z,1023.89
2019-05-29T17:30:09.714Z,1023.96
2019-05-29T17:40:03.743Z,1024.08
2019-05-29T17:50:03.400Z,1024.21
2019-05-29T18:00:03.973Z,1024.33
2019-05-29T18:10:03.135Z,1024.46
2019-05-29T18:20:03.840Z,1024.56
2019-05-29T18:30:04.549Z,1024.73
2019-05-29T18:40:06.895Z,1024.81
2019-05-29T18:50:02.958Z,1024.91
2019-05-29T19:00:04.486Z,1025.05
2019-05-29T19:10:07.660Z,1025.11
2019-05-29T19:20:02.925Z,1025.34
2019-05-29T19:30:04.355Z,1025.53
2019-05-29T19:40:03.313Z,1025.74
2019-05-29T19:50:03.298Z,1025.90
2019-05-29T20:00:03.828Z,1026.02
2019-05-29T20:10:03.449Z,1026.10
2019-05-29T20:20:04.018Z,1026.16
2019-05-29T20:30:04.652Z,1026.24
2019-05-29T20:40:03.265Z,1026.35
2019-05-29T20:50:03.278Z,1026.41
2019-05-29T21:00:04.152Z,1026.53
2019-05-29T21:10:04.148Z,1026.55
2019-05-29T21:20:03.929Z,1026.64
2019-05-29T21:30:03.765Z,1026.64
2019-05-29T21:40:04.578Z,1026.68
2019-05-29T21:50:03.670Z,1026.75
2019-05-29T22:00:05.389Z,1026.81
2019-05-29T22:10:03.853Z,1026.88
2019-05-29T22:20:03.341Z,1026.93
2019-05-29T22:30:04.129Z,1027.01
2019-05-29T22:40:02.912Z,1027.03
2019-05-29T22:50:03.297Z,1027.02
2019-05-29T23:00:03.540Z,1027.08
2019-05-29T23:10:03.580Z,1027.06
2019-05-29T23:20:04.948Z,1027.05
2019-05-29T23:30:04.573Z,1027.07
2019-05-29T23:40:04.247Z,1027.10
2019-05-29T23:50:05.093Z,1027.09
